createdAt,value
2022-08-31T01:04:30.946Z,21.40
2022-08-31T01:05:34.879Z,21.40
2022-08-31T01:06:37.313Z,21.40
2022-08-31T01:07:40.981Z,21.50
2022-08-31T01:08:44.707Z,21.40
2022-08-31T01:09:55.528Z,21.50
2022-08-31T01:11:00.440Z,21.40
2022-08-31T01:12:05.879Z,21.40
2022-08-31T01:13:12.375Z,21.40
2022-08-31T01:14:14.763Z,21.50
2022-08-31T01:15:17.039Z,21.40
2022-08-31T01:16:25.933Z,21.30
2022-08-31T01:17:28.349Z,21.30
2022-08-31T01:18:32.886Z,21.30
2022-08-31T01:20:10.246Z,21.30
2022-08-31T01:21:29.524Z,21.40
2022-08-31T01:22:57.686Z,21.40
2022-08-31T01:24:01.977Z,21.40
2022-08-31T01:25:05.165Z,21.40
2022-08-31T01:26:09.620Z,21.40
2022-08-31T01:27:13.940Z,21.40
2022-08-31T01:28:16.219Z,21.30
2022-08-31T01:29:18.334Z,21.20
2022-08-31T01:30:24.679Z,21.20
2022-08-31T01:31:42.864Z,21.20
2022-08-31T01:32:44.934Z,21.10
2022-08-31T01:33:47.865Z,21.00
2022-08-31T01:34:50.133Z,21.00
2022-08-31T01:35:52.224Z,20.90
2022-08-31T01:36:54.743Z,20.80
2022-08-31T01:37:57.807Z,20.80
2022-08-31T01:39:00.045Z,20.70
2022-08-31T01:40:02.602Z,20.70
2022-08-31T01:41:06.736Z,20.70
2022-08-31T01:42:09.725Z,20.80
2022-08-31T01:43:11.932Z,20.70
2022-08-31T01:44:18.390Z,20.70
2022-08-31T01:45:20.532Z,20.70
2022-08-31T01:46:23.299Z,20.70
2022-08-31T01:47:25.456Z,20.60
2022-08-31T01:48:27.657Z,20.60
2022-08-31T01:49:29.786Z,20.60
2022-08-31T01:50:32.579Z,20.60
2022-08-31T01:51:35.583Z,20.60
2022-08-31T01:52:39.690Z,20.50
2022-08-31T01:53:45.578Z,20.50
2022-08-31T01:54:50.518Z,20.50
2022-08-31T01:55:52.650Z,20.50
2022-08-31T01:56:56.037Z,20.50
2022-08-31T01:58:15.446Z,20.50
2022-08-31T01:59:20.208Z,20.50
2022-08-31T02:00:32.062Z,20.50
2022-08-31T02:01:37.659Z,20.50
2022-08-31T02:02:40.024Z,20.60
2022-08-31T02:03:44.200Z,20.50
2022-08-31T02:04:46.456Z,20.50
2022-08-31T02:05:48.579Z,20.50
2022-08-31T02:06:54.943Z,20.50
2022-08-31T02:07:57.922Z,20.50
2022-08-31T02:09:05.942Z,20.40
2022-08-31T02:10:09.088Z,20.50
2022-08-31T02:11:11.319Z,20.50
2022-08-31T02:12:13.465Z,20.60
2022-08-31T02:13:16.030Z,20.50
2022-08-31T02:14:18.944Z,20.60
2022-08-31T02:15:21.175Z,20.60
2022-08-31T02:16:23.530Z,20.60
2022-08-31T02:17:25.762Z,20.60
2022-08-31T02:18:28.435Z,20.50
2022-08-31T02:19:30.547Z,20.60
2022-08-31T02:20:32.716Z,20.60
2022-08-31T02:21:36.805Z,20.60
2022-08-31T02:22:39.429Z,20.70
2022-08-31T02:23:42.091Z,20.70
2022-08-31T02:24:44.202Z,20.80
2022-08-31T02:25:46.554Z,20.80
2022-08-31T02:26:53.556Z,20.70
2022-08-31T02:27:56.482Z,20.60
2022-08-31T02:28:59.010Z,20.50
2022-08-31T02:30:01.067Z,20.60
2022-08-31T02:31:04.558Z,20.60
2022-08-31T02:32:19.711Z,20.60
2022-08-31T02:33:24.980Z,20.60
2022-08-31T02:34:28.122Z,20.60
2022-08-31T02:35:30.329Z,20.70
2022-08-31T02:36:33.068Z,20.70
2022-08-31T02:37:38.461Z,20.70
2022-08-31T02:38:41.091Z,20.80
2022-08-31T02:39:44.704Z,20.70
2022-08-31T02:40:50.316Z,20.60
2022-08-31T02:41:54.054Z,20.60
2022-08-31T02:42:56.304Z,20.50
2022-08-31T02:44:01.384Z,20.50
2022-08-31T02:45:09.712Z,20.50
2022-08-31T02:46:12.961Z,20.50
2022-08-31T02:47:21.494Z,20.50
2022-08-31T02:48:41.914Z,20.50
2022-08-31T02:49:50.176Z,20.50
2022-08-31T02:50:55.498Z,20.60
2022-08-31T02:52:00.598Z,20.60
2022-08-31T02:53:05.484Z,20.50
2022-08-31T02:54:11.719Z,20.50
2022-08-31T02:55:15.949Z,20.50
2022-08-31T02:56:21.064Z,20.50
2022-08-31T02:57:25.289Z,20.50
2022-08-31T02:58:30.242Z,20.40
2022-08-31T02:59:35.273Z,20.40
2022-08-31T03:00:41.567Z,20.40
2022-08-31T03:01:45.998Z,20.50
2022-08-31T03:02:52.709Z,20.50
2022-08-31T03:03:57.567Z,20.50
2022-08-31T03:05:09.248Z,20.50
2022-08-31T03:06:14.586Z,20.50
2022-08-31T03:07:20.914Z,20.50
2022-08-31T03:08:27.106Z,20.50
2022-08-31T03:09:33.209Z,20.60
2022-08-31T03:10:38.709Z,20.50
2022-08-31T03:11:41.126Z,20.60
2022-08-31T03:12:44.187Z,20.60
2022-08-31T03:13:46.467Z,20.60
2022-08-31T03:14:48.659Z,20.70
2022-08-31T03:15:52.222Z,20.70
2022-08-31T03:16:54.864Z,20.70
2022-08-31T03:17:57.407Z,20.70
2022-08-31T03:18:59.602Z,20.70
2022-08-31T03:20:05.216Z,20.70
2022-08-31T03:21:07.860Z,20.70
2022-08-31T03:22:12.404Z,20.70
2022-08-31T03:23:15.513Z,20.80
2022-08-31T03:24:18.348Z,20.70
2022-08-31T03:25:24.349Z,20.80
2022-08-31T03:26:26.616Z,20.90
2022-08-31T03:27:32.386Z,20.80
2022-08-31T03:28:38.088Z,20.90
2022-08-31T03:30:12.204Z,20.90
2022-08-31T03:31:16.731Z,20.80
2022-08-31T03:32:19.608Z,20.70
2022-08-31T03:33:25.181Z,20.70
2022-08-31T03:34:27.344Z,20.70
2022-08-31T03:35:31.967Z,20.70
2022-08-31T03:36:34.282Z,20.60
2022-08-31T03:37:37.749Z,20.60
2022-08-31T03:38:39.854Z,20.60
2022-08-31T03:39:41.952Z,20.50
2022-08-31T03:40:45.140Z,20.50
2022-08-31T03:41:47.329Z,20.50
2022-08-31T03:42:50.193Z,20.50
2022-08-31T03:43:52.932Z,20.40
2022-08-31T03:44:55.369Z,20.40
2022-08-31T03:46:07.886Z,20.40
2022-08-31T03:47:16.845Z,20.40
2022-08-31T03:48:19.382Z,20.40
2022-08-31T03:49:22.630Z,20.40
2022-08-31T03:50:44.751Z,20.40
2022-08-31T03:51:53.704Z,20.40
2022-08-31T03:52:58.077Z,20.40
2022-08-31T03:54:00.250Z,20.50
2022-08-31T03:55:02.799Z,20.50
2022-08-31T03:56:08.591Z,20.50
2022-08-31T03:57:15.713Z,20.50
2022-08-31T03:58:18.364Z,20.50
2022-08-31T03:59:21.015Z,20.50
2022-08-31T04:00:55.688Z,20.50
2022-08-31T04:02:34.109Z,20.60
2022-08-31T04:03:57.936Z,20.60
2022-08-31T04:05:23.191Z,20.70
2022-08-31T04:06:37.281Z,20.70
2022-08-31T04:07:58.447Z,20.70
2022-08-31T04:09:21.257Z,20.60
2022-08-31T04:10:58.601Z,20.50
2022-08-31T04:12:19.729Z,20.50
2022-08-31T04:13:42.167Z,20.50
2022-08-31T04:14:50.373Z,20.60
2022-08-31T04:16:22.230Z,20.50
2022-08-31T04:17:45.482Z,20.60
2022-08-31T04:19:07.991Z,20.60
2022-08-31T04:20:15.765Z,20.50
2022-08-31T04:21:24.288Z,20.50
2022-08-31T04:22:27.031Z,20.60
2022-08-31T04:23:55.459Z,20.60
2022-08-31T04:24:58.058Z,20.70
2022-08-31T04:26:00.252Z,20.80
2022-08-31T04:27:02.552Z,20.80
2022-08-31T04:28:04.837Z,20.80
2022-08-31T04:29:13.303Z,20.90
2022-08-31T04:30:18.880Z,20.80
2022-08-31T04:31:23.314Z,20.70
2022-08-31T04:32:26.007Z,20.60
2022-08-31T04:33:28.608Z,20.60
2022-08-31T04:34:31.272Z,20.60
2022-08-31T04:35:33.744Z,20.50
2022-08-31T04:36:37.546Z,20.60
2022-08-31T04:37:46.333Z,20.60
2022-08-31T04:38:52.049Z,20.60
2022-08-31T04:39:55.740Z,20.50
2022-08-31T04:41:12.680Z,20.60
2022-08-31T04:42:15.773Z,20.60
2022-08-31T04:43:18.135Z,20.60
2022-08-31T04:44:20.943Z,20.50
2022-08-31T04:45:31.115Z,20.50
2022-08-31T04:46:35.852Z,20.50
2022-08-31T04:47:38.295Z,20.50
2022-08-31T04:48:41.471Z,20.60
2022-08-31T04:49:44.555Z,20.70
2022-08-31T04:50:50.793Z,20.80
2022-08-31T04:51:53.311Z,20.80
2022-08-31T04:52:57.469Z,20.80
2022-08-31T04:54:09.069Z,20.80
2022-08-31T04:55:12.370Z,20.80
2022-08-31T04:56:18.015Z,20.70
2022-08-31T04:57:20.675Z,20.70
2022-08-31T04:58:23.928Z,20.70
2022-08-31T04:59:27.723Z,20.70
2022-08-31T05:00:44.146Z,20.70
2022-08-31T05:02:13.111Z,20.70
2022-08-31T05:03:34.098Z,20.70
2022-08-31T05:04:37.109Z,20.70
2022-08-31T05:05:40.734Z,20.80
2022-08-31T05:06:45.004Z,20.80
2022-08-31T05:07:49.052Z,20.90
2022-08-31T05:08:57.298Z,20.90
2022-08-31T05:09:59.479Z,20.80
2022-08-31T05:11:12.109Z,20.80
2022-08-31T05:12:14.513Z,20.80
2022-08-31T05:13:16.668Z,20.90
2022-08-31T05:14:19.010Z,20.90
2022-08-31T05:15:26.525Z,21.00
2022-08-31T05:16:33.725Z,21.00
2022-08-31T05:17:36.057Z,21.10
2022-08-31T05:18:40.148Z,21.20
2022-08-31T05:19:42.577Z,21.20
2022-08-31T05:20:44.763Z,21.30
2022-08-31T05:21:47.523Z,21.30
2022-08-31T05:22:49.818Z,21.40
2022-08-31T05:23:52.072Z,21.50
2022-08-31T05:24:54.235Z,21.60
2022-08-31T05:25:56.380Z,21.60
2022-08-31T05:26:58.756Z,21.70
2022-08-31T05:28:01.717Z,21.70
2022-08-31T05:29:07.301Z,21.70
2022-08-31T05:30:12.580Z,21.80
2022-08-31T05:31:30.244Z,21.80
2022-08-31T05:32:34.326Z,21.80
2022-08-31T05:33:41.428Z,21.80
2022-08-31T05:34:43.685Z,21.80
2022-08-31T05:35:48.286Z,21.90
2022-08-31T05:36:54.639Z,21.80
2022-08-31T05:37:57.105Z,21.60
2022-08-31T05:39:01.486Z,21.50
2022-08-31T05:40:04.669Z,21.50
2022-08-31T05:41:07.860Z,21.30
2022-08-31T05:42:10.466Z,21.30
2022-08-31T05:43:12.657Z,21.30
2022-08-31T05:44:16.270Z,21.30
2022-08-31T05:45:18.983Z,21.30
2022-08-31T05:46:22.801Z,21.30
2022-08-31T05:47:25.512Z,21.30
2022-08-31T05:48:33.656Z,21.40
2022-08-31T05:49:37.386Z,21.40
2022-08-31T05:50:43.294Z,21.40
2022-08-31T05:51:47.041Z,21.50
2022-08-31T05:52:49.485Z,21.50
2022-08-31T05:53:52.169Z,21.40
2022-08-31T05:54:54.503Z,21.40
2022-08-31T05:56:01.217Z,21.50
2022-08-31T05:57:04.656Z,21.50
2022-08-31T05:58:06.908Z,21.60
2022-08-31T05:59:09.310Z,21.70
2022-08-31T06:00:12.120Z,21.80
2022-08-31T06:01:24.175Z,21.90
2022-08-31T06:02:40.233Z,22.00
2022-08-31T06:03:45.096Z,22.10
2022-08-31T06:04:47.481Z,22.10
2022-08-31T06:05:55.464Z,22.30
2022-08-31T06:06:58.241Z,22.30
2022-08-31T06:08:04.390Z,22.40
2022-08-31T06:09:09.416Z,22.60
2022-08-31T06:10:12.515Z,22.70
2022-08-31T06:11:19.416Z,22.80
2022-08-31T06:12:25.635Z,22.90
2022-08-31T06:13:29.960Z,22.90
2022-08-31T06:14:33.056Z,23.00
2022-08-31T06:15:35.535Z,23.00
2022-08-31T06:16:45.418Z,22.90
2022-08-31T06:17:50.363Z,22.90
2022-08-31T06:18:55.820Z,22.90
2022-08-31T06:19:58.421Z,22.90
2022-08-31T06:21:09.352Z,22.90
2022-08-31T06:22:11.739Z,22.90
2022-08-31T06:23:14.026Z,22.90
2022-08-31T06:24:22.335Z,23.00
2022-08-31T06:25:25.821Z,23.00
2022-08-31T06:26:31.655Z,23.10
2022-08-31T06:27:38.867Z,23.10
2022-08-31T06:28:50.527Z,23.20
2022-08-31T06:29:53.515Z,23.20
2022-08-31T06:30:55.965Z,23.30
2022-08-31T06:32:00.511Z,23.30
2022-08-31T06:33:05.068Z,23.40
2022-08-31T06:34:21.471Z,23.50
2022-08-31T06:35:42.601Z,23.60
2022-08-31T06:37:14.498Z,23.70
2022-08-31T06:38:33.669Z,23.70
2022-08-31T06:40:05.501Z,23.80
2022-08-31T06:41:31.134Z,23.90
2022-08-31T06:42:58.125Z,24.00
2022-08-31T06:44:11.004Z,24.10
2022-08-31T06:45:26.787Z,24.10
2022-08-31T06:46:33.886Z,24.10
2022-08-31T06:47:43.564Z,24.10
2022-08-31T06:48:48.300Z,24.20
2022-08-31T06:49:50.556Z,24.30
2022-08-31T06:50:57.398Z,24.40
2022-08-31T06:52:01.073Z,24.50
2022-08-31T06:53:04.909Z,24.80
2022-08-31T06:54:30.006Z,24.90
2022-08-31T06:56:20.250Z,25.20
2022-08-31T06:57:42.014Z,25.40
2022-08-31T06:59:16.711Z,25.60
2022-08-31T07:00:38.038Z,25.80
2022-08-31T07:01:59.182Z,25.90
2022-08-31T07:03:23.260Z,26.10
2022-08-31T07:04:31.334Z,26.20
2022-08-31T07:05:33.507Z,26.30
2022-08-31T07:06:44.285Z,26.30
2022-08-31T07:07:47.431Z,26.40
2022-08-31T07:08:53.420Z,26.50
2022-08-31T07:09:56.231Z,26.70
